Time;durP1;ratioP1;P1;durP2;ratioP2;P2;SDS_P1;SDS_P2;PMS_P1;PMS_P2;Temp;Humidity;BMP_temperature;BMP_pressure;BME280_temperature;BME280_humidity;BME280_pressure;Samples;Min_cycle;Max_cycle;Signal;HPM_P1;HPM_P2
2021/08/10 00:01:16;;;;;;;4.63;4.22;;;;;;;;;;5091528;28;20028;-43
2021/08/10 00:03:43;;;;;;;7.07;4.20;;;;;;;;;;5073816;28;20079;-43
2021/08/10 00:06:09;;;;;;;6.65;4.63;;;;;;;;;;5092029;28;20020;-43
2021/08/10 00:08:35;;;;;;;5.85;4.65;;;;;;;;;;5092044;28;20531;-43
2021/08/10 00:11:01;;;;;;;5.03;4.53;;;;;;;;;;5091974;28;20115;-44
2021/08/10 00:13:27;;;;;;;5.75;4.60;;;;;;;;;;5091831;28;20025;-43
2021/08/10 00:15:53;;;;;;;6.13;5.00;;;;;;;;;;5091274;28;20090;-44
2021/08/10 00:18:20;;;;;;;5.57;5.07;;;;;;;;;;5091703;28;20059;-44
2021/08/10 00:20:46;;;;;;;5.72;4.85;;;;;;;;;;5092022;28;20050;-44
2021/08/10 00:23:12;;;;;;;8.43;5.47;;;;;;;;;;5091786;28;20027;-44
2021/08/10 00:25:38;;;;;;;6.25;5.65;;;;;;;;;;5091795;28;20028;-44
2021/08/10 00:28:04;;;;;;;7.32;5.68;;;;;;;;;;5091871;28;20069;-43
2021/08/10 00:30:30;;;;;;;6.13;5.30;;;;;;;;;;5091777;28;20024;-43
2021/08/10 00:32:56;;;;;;;7.55;5.65;;;;;;;;;;5091853;28;20565;-43
2021/08/10 00:35:22;;;;;;;7.82;5.80;;;;;;;;;;5091827;28;20089;-43
2021/08/10 00:37:48;;;;;;;8.00;6.13;;;;;;;;;;5091711;28;20016;-43
2021/08/10 00:40:15;;;;;;;6.55;5.88;;;;;;;;;;5091679;28;20391;-43
2021/08/10 00:42:42;;;;;;;9.20;5.90;;;;;;;;;;5091729;28;20028;-43
2021/08/10 00:45:08;;;;;;;5.97;5.32;;;;;;;;;;5091738;28;20387;-43
2021/08/10 00:47:34;;;;;;;6.82;5.78;;;;;;;;;;5091632;28;20031;-43
2021/08/10 00:50:00;;;;;;;7.72;5.47;;;;;;;;;;5091593;28;20463;-44
2021/08/10 00:52:26;;;;;;;6.05;5.50;;;;;;;;;;5091751;28;20024;-43
2021/08/10 00:54:53;;;;;;;8.07;5.68;;;;;;;;;;5073698;28;20032;-42
2021/08/10 00:57:19;;;;;;;6.53;5.80;;;;;;;;;;5091781;28;20020;-44
2021/08/10 00:59:45;;;;;;;7.10;5.55;;;;;;;;;;5091815;28;20089;-43
2021/08/10 01:02:11;;;;;;;7.03;6.05;;;;;;;;;;5073454;28;20020;-42
2021/08/10 01:04:38;;;;;;;6.47;5.88;;;;;;;;;;5091370;28;20115;-43
2021/08/10 01:07:07;;;;;;;7.28;5.65;;;;;;;;;;5091450;28;20024;-43
2021/08/10 01:09:39;;;;;;;10.60;6.50;;;;;;;;;;5091333;28;20020;-42
2021/08/10 01:12:15;;;;;;;6.88;6.10;;;;;;;;;;5091444;28;20107;-42
2021/08/10 01:15:01;;;;;;;6.55;5.65;;;;;;;;;;5091467;28;20056;-43
2021/08/10 01:17:36;;;;;;;7.78;6.97;;;;;;;;;;5091227;28;20097;-43
2021/08/10 01:20:02;;;;;;;7.93;7.18;;;;;;;;;;5073320;28;20058;-44
2021/08/10 01:22:28;;;;;;;8.30;7.50;;;;;;;;;;5073264;28;20032;-43
2021/08/10 01:24:57;;;;;;;8.50;7.15;;;;;;;;;;5091405;28;20024;-43
2021/08/10 01:27:33;;;;;;;8.23;7.43;;;;;;;;;;5091383;28;20055;-43
2021/08/10 01:30:12;;;;;;;7.40;6.65;;;;;;;;;;5095101;28;20028;-43
2021/08/10 01:32:39;;;;;;;7.53;6.82;;;;;;;;;;5094965;28;20417;-43
2021/08/10 01:35:05;;;;;;;7.93;7.00;;;;;;;;;;5094911;28;20104;-43
2021/08/10 01:37:32;;;;;;;6.90;6.10;;;;;;;;;;5094764;28;20020;-42
2021/08/10 01:40:03;;;;;;;8.77;7.07;;;;;;;;;;5076689;28;20119;-43
2021/08/10 01:42:29;;;;;;;9.82;7.63;;;;;;;;;;5095062;28;20077;-43
2021/08/10 01:44:57;;;;;;;7.95;7.15;;;;;;;;;;5094964;28;20032;-43
2021/08/10 01:47:23;;;;;;;11.32;6.90;;;;;;;;;;5094851;28;20123;-42
2021/08/10 01:49:49;;;;;;;8.00;7.20;;;;;;;;;;5076611;28;20345;-43
2021/08/10 01:52:16;;;;;;;7.90;6.93;;;;;;;;;;5094672;28;20448;-42
2021/08/10 01:54:43;;;;;;;7.28;6.50;;;;;;;;;;5094824;28;20031;-43
2021/08/10 01:57:10;;;;;;;7.28;6.57;;;;;;;;;;5094539;28;20020;-43
2021/08/10 01:59:37;;;;;;;7.70;6.90;;;;;;;;;;5076337;28;20027;-43
2021/08/10 02:02:04;;;;;;;9.75;7.25;;;;;;;;;;5094493;28;20077;-43
2021/08/10 02:04:30;;;;;;;8.30;7.40;;;;;;;;;;5076149;28;20055;-43
2021/08/10 02:06:57;;;;;;;8.60;7.03;;;;;;;;;;5094371;28;20027;-43
2021/08/10 02:09:23;;;;;;;8.07;7.38;;;;;;;;;;5094270;28;20020;-43
2021/08/10 02:11:50;;;;;;;7.47;6.78;;;;;;;;;;5094325;28;20054;-41
2021/08/10 02:14:22;;;;;;;7.25;6.45;;;;;;;;;;5094178;28;20394;-42
2021/08/10 02:16:49;;;;;;;7.68;6.95;;;;;;;;;;5094108;28;20072;-42
2021/08/10 02:19:15;;;;;;;7.93;6.43;;;;;;;;;;5094219;28;20395;-43
2021/08/10 02:21:41;;;;;;;7.95;7.13;;;;;;;;;;5094236;28;20058;-42
2021/08/10 02:24:09;;;;;;;7.75;6.95;;;;;;;;;;5094121;28;20024;-42
2021/08/10 02:26:38;;;;;;;7.30;6.53;;;;;;;;;;5094257;28;20859;-42
2021/08/10 02:29:05;;;;;;;7.72;6.60;;;;;;;;;;5093818;28;20073;-42
2021/08/10 02:31:31;;;;;;;6.55;5.95;;;;;;;;;;5093902;28;20537;-43
2021/08/10 02:33:58;;;;;;;6.80;6.10;;;;;;;;;;5075614;28;20085;-43
2021/08/10 02:36:24;;;;;;;7.32;6.45;;;;;;;;;;5093741;28;20020;-42
2021/08/10 02:38:52;;;;;;;6.68;6.07;;;;;;;;;;5093380;28;20035;-42
2021/08/10 02:41:18;;;;;;;6.70;6.10;;;;;;;;;;5093732;28;20043;-42
2021/08/10 02:43:44;;;;;;;8.50;6.63;;;;;;;;;;5093823;28;20501;-42
2021/08/10 02:46:10;;;;;;;8.68;6.68;;;;;;;;;;5093816;28;20028;-43
2021/08/10 02:48:36;;;;;;;7.72;7.03;;;;;;;;;;5093567;28;20024;-42
2021/08/10 02:51:02;;;;;;;6.95;6.32;;;;;;;;;;5093477;28;20065;-44
2021/08/10 02:53:29;;;;;;;7.30;6.60;;;;;;;;;;5093283;28;20043;-42
2021/08/10 02:56:15;;;;;;;7.90;7.18;;;;;;;;;;5093413;28;20417;-43
2021/08/10 02:58:45;;;;;;;7.50;6.80;;;;;;;;;;5093435;28;20489;-43
2021/08/10 03:01:13;;;;;;;6.90;6.20;;;;;;;;;;5093340;28;20434;-46
2021/08/10 03:03:39;;;;;;;7.80;7.10;;;;;;;;;;5093122;28;20047;-43
2021/08/10 03:06:07;;;;;;;7.15;6.53;;;;;;;;;;5093186;28;20451;-43
2021/08/10 03:08:34;;;;;;;8.02;7.22;;;;;;;;;;5093111;28;20051;-43
2021/08/10 03:11:00;;;;;;;8.02;7.30;;;;;;;;;;5093167;28;20364;-43
2021/08/10 03:13:28;;;;;;;7.75;7.05;;;;;;;;;;5092997;28;20058;-43
2021/08/10 03:15:56;;;;;;;8.00;6.90;;;;;;;;;;5093090;28;20060;-42
2021/08/10 03:18:26;;;;;;;7.45;6.75;;;;;;;;;;5093026;28;20097;-43
2021/08/10 03:20:57;;;;;;;9.07;7.85;;;;;;;;;;5092810;28;20035;-43
2021/08/10 03:23:23;;;;;;;9.15;7.50;;;;;;;;;;5092973;28;20048;-43
2021/08/10 03:25:49;;;;;;;8.68;7.65;;;;;;;;;;5092629;28;20031;-43
2021/08/10 03:28:16;;;;;;;10.00;8.50;;;;;;;;;;5092018;28;20020;-46
2021/08/10 03:30:42;;;;;;;9.57;8.55;;;;;;;;;;5091552;28;20442;-48
2021/08/10 03:33:09;;;;;;;11.77;8.35;;;;;;;;;;5092595;28;20056;-44
2021/08/10 03:35:36;;;;;;;9.77;8.80;;;;;;;;;;5092611;28;20444;-47
2021/08/10 03:38:03;;;;;;;9.98;8.30;;;;;;;;;;5092443;28;20032;-45
2021/08/10 03:40:29;;;;;;;9.27;7.90;;;;;;;;;;5092482;28;20028;-44
2021/08/10 03:42:55;;;;;;;9.20;8.30;;;;;;;;;;5092455;28;20428;-44
2021/08/10 03:45:23;;;;;;;9.18;8.27;;;;;;;;;;5092337;28;20090;-44
2021/08/10 03:47:50;;;;;;;11.38;8.95;;;;;;;;;;5092216;28;20025;-44
2021/08/10 03:50:16;;;;;;;9.50;8.60;;;;;;;;;;5073456;28;20024;-45
2021/08/10 03:52:42;;;;;;;10.38;9.27;;;;;;;;;;5092216;28;20069;-45
2021/08/10 03:55:09;;;;;;;11.68;9.68;;;;;;;;;;5092335;28;20099;-45
2021/08/10 03:57:36;;;;;;;12.30;9.98;;;;;;;;;;5092369;28;20421;-45
2021/08/10 04:00:05;;;;;;;9.75;8.75;;;;;;;;;;5092307;28;20474;-46
2021/08/10 04:02:32;;;;;;;11.15;10.15;;;;;;;;;;5092068;28;20109;-45
2021/08/10 04:04:59;;;;;;;14.02;9.48;;;;;;;;;;5091867;28;20046;-44
2021/08/10 04:07:26;;;;;;;11.88;9.98;;;;;;;;;;5092131;28;20390;-46
2021/08/10 04:09:52;;;;;;;10.68;9.02;;;;;;;;;;5073909;28;20503;-46
2021/08/10 04:12:20;;;;;;;10.27;9.27;;;;;;;;;;5092071;28;20028;-45
2021/08/10 04:14:46;;;;;;;11.35;10.25;;;;;;;;;;5091887;28;20471;-45
2021/08/10 04:17:13;;;;;;;10.75;9.27;;;;;;;;;;5091402;28;20055;-44
2021/08/10 04:19:50;;;;;;;10.88;9.73;;;;;;;;;;5091891;28;20384;-45
2021/08/10 04:22:17;;;;;;;10.45;9.40;;;;;;;;;;5091802;28;20028;-46
2021/08/10 04:24:44;;;;;;;10.60;9.60;;;;;;;;;;5091726;28;20028;-45
2021/08/10 04:27:11;;;;;;;10.98;9.93;;;;;;;;;;5091684;28;20020;-45
2021/08/10 04:29:38;;;;;;;10.88;9.63;;;;;;;;;;5091609;28;20026;-45
2021/08/10 04:32:04;;;;;;;10.13;8.82;;;;;;;;;;5073627;28;20031;-44
2021/08/10 04:34:31;;;;;;;10.32;9.32;;;;;;;;;;5091703;28;20028;-45
2021/08/10 04:36:57;;;;;;;11.32;10.25;;;;;;;;;;5091712;28;20024;-45
2021/08/10 04:39:26;;;;;;;12.02;9.60;;;;;;;;;;5091663;28;20028;-44
2021/08/10 04:41:52;;;;;;;11.63;10.48;;;;;;;;;;5091560;28;20067;-45
2021/08/10 04:44:18;;;;;;;11.35;10.20;;;;;;;;;;5091504;28;20077;-48
2021/08/10 04:46:44;;;;;;;10.82;9.82;;;;;;;;;;5091566;28;20115;-44
2021/08/10 04:49:10;;;;;;;11.07;10.02;;;;;;;;;;5091467;28;20467;-46
2021/08/10 04:51:36;;;;;;;11.75;10.43;;;;;;;;;;5091468;28;20012;-46
2021/08/10 04:54:02;;;;;;;12.27;11.07;;;;;;;;;;5073989;28;20037;-46
2021/08/10 04:56:28;;;;;;;10.70;9.60;;;;;;;;;;5071319;28;20360;-45
2021/08/10 04:58:54;;;;;;;12.75;11.45;;;;;;;;;;5071089;28;20074;-48
2021/08/10 05:01:20;;;;;;;12.38;10.80;;;;;;;;;;5071599;28;20479;-45
2021/08/10 05:03:46;;;;;;;12.77;10.18;;;;;;;;;;5092744;28;20039;-45
2021/08/10 05:06:12;;;;;;;11.07;9.63;;;;;;;;;;5089268;28;20439;-45
2021/08/10 05:08:38;;;;;;;11.40;10.00;;;;;;;;;;5094836;28;20508;-45
2021/08/10 05:11:08;;;;;;;10.40;9.32;;;;;;;;;;5095467;28;20190;-45
2021/08/10 05:13:34;;;;;;;10.82;9.80;;;;;;;;;;5095103;28;20024;-44
2021/08/10 05:16:00;;;;;;;12.98;10.65;;;;;;;;;;5095105;28;20024;-45
2021/08/10 05:18:26;;;;;;;12.68;10.38;;;;;;;;;;5095240;28;20052;-45
2021/08/10 05:20:52;;;;;;;13.57;10.88;;;;;;;;;;5095344;28;20540;-44
2021/08/10 05:23:18;;;;;;;12.23;11.05;;;;;;;;;;5095232;28;20118;-43
2021/08/10 05:25:44;;;;;;;11.18;10.18;;;;;;;;;;5094765;28;20050;-44
2021/08/10 05:28:10;;;;;;;11.25;10.25;;;;;;;;;;5094931;28;20024;-45
2021/08/10 05:30:37;;;;;;;11.75;10.65;;;;;;;;;;5095174;28;20047;-46
2021/08/10 05:33:03;;;;;;;12.15;10.80;;;;;;;;;;5093675;28;20050;-44
2021/08/10 05:35:29;;;;;;;11.50;10.40;;;;;;;;;;5094773;28;20028;-45
2021/08/10 05:37:55;;;;;;;12.00;10.80;;;;;;;;;;5093409;28;20052;-48
2021/08/10 05:40:21;;;;;;;10.77;9.77;;;;;;;;;;5091703;28;20032;-44
2021/08/10 05:42:47;;;;;;;11.88;10.77;;;;;;;;;;5088882;28;20036;-45
2021/08/10 05:45:13;;;;;;;14.40;10.95;;;;;;;;;;5088235;28;20029;-44
2021/08/10 05:47:39;;;;;;;11.05;9.95;;;;;;;;;;5084754;28;20505;-44
2021/08/10 05:50:06;;;;;;;11.52;10.43;;;;;;;;;;5089321;28;20510;-45
2021/08/10 05:52:32;;;;;;;12.23;10.68;;;;;;;;;;5085878;28;20019;-44
2021/08/10 05:54:58;;;;;;;11.98;10.70;;;;;;;;;;5082742;28;20376;-44
2021/08/10 05:57:24;;;;;;;11.10;10.00;;;;;;;;;;5086684;28;20024;-45
2021/08/10 05:59:50;;;;;;;11.02;10.02;;;;;;;;;;5084632;28;20063;-46
2021/08/10 06:02:16;;;;;;;11.98;9.95;;;;;;;;;;5092790;28;20447;-44
2021/08/10 06:04:42;;;;;;;13.95;11.40;;;;;;;;;;5092119;28;20052;-46
2021/08/10 06:07:08;;;;;;;11.52;10.32;;;;;;;;;;5087744;28;20024;-46
2021/08/10 06:09:34;;;;;;;11.57;10.45;;;;;;;;;;5090714;28;20089;-46
2021/08/10 06:12:00;;;;;;;10.68;9.63;;;;;;;;;;5088490;28;20021;-46
2021/08/10 06:14:27;;;;;;;14.98;10.75;;;;;;;;;;5091635;28;20056;-49
2021/08/10 06:16:53;;;;;;;10.13;9.13;;;;;;;;;;5087607;28;20044;-45
2021/08/10 06:19:19;;;;;;;11.30;10.02;;;;;;;;;;5093926;28;20776;-48
2021/08/10 06:21:45;;;;;;;10.32;9.38;;;;;;;;;;5093275;28;21180;-46
2021/08/10 06:24:11;;;;;;;10.25;9.27;;;;;;;;;;5091627;28;20074;-45
2021/08/10 06:26:37;;;;;;;9.95;9.05;;;;;;;;;;5089218;28;20025;-46
2021/08/10 06:29:03;;;;;;;10.70;9.25;;;;;;;;;;5073026;28;20098;-44
2021/08/10 06:31:29;;;;;;;9.52;8.63;;;;;;;;;;5075524;28;20020;-44
2021/08/10 06:33:55;;;;;;;10.90;9.20;;;;;;;;;;5074082;28;20036;-45
2021/08/10 06:36:21;;;;;;;11.32;9.95;;;;;;;;;;5078746;28;20038;-44
2021/08/10 06:38:47;;;;;;;10.95;9.90;;;;;;;;;;5080418;28;20171;-43
2021/08/10 06:41:13;;;;;;;9.65;8.68;;;;;;;;;;5080802;28;20469;-44
2021/08/10 06:43:39;;;;;;;10.00;8.68;;;;;;;;;;5090274;28;20036;-46
2021/08/10 06:46:05;;;;;;;9.80;8.80;;;;;;;;;;5087093;28;20038;-44
2021/08/10 06:48:31;;;;;;;9.27;8.38;;;;;;;;;;5083283;28;20479;-44
2021/08/10 06:50:57;;;;;;;8.60;7.90;;;;;;;;;;5080951;28;20028;-43
2021/08/10 06:53:24;;;;;;;10.15;7.90;;;;;;;;;;5083871;28;20031;-43
2021/08/10 06:55:50;;;;;;;9.68;8.77;;;;;;;;;;5086416;28;20169;-43
2021/08/10 06:58:16;;;;;;;9.23;8.38;;;;;;;;;;5082727;28;20383;-44
2021/08/10 07:00:43;;;;;;;8.80;7.95;;;;;;;;;;5062685;28;20391;-45
2021/08/10 07:03:09;;;;;;;9.48;8.57;;;;;;;;;;5081371;28;20035;-44
2021/08/10 07:05:35;;;;;;;9.38;8.50;;;;;;;;;;5086227;28;20058;-43
2021/08/10 07:08:01;;;;;;;9.10;8.20;;;;;;;;;;5085316;28;20021;-43
2021/08/10 07:10:28;;;;;;;8.63;7.82;;;;;;;;;;5082555;28;20016;-44
2021/08/10 07:12:54;;;;;;;9.35;8.35;;;;;;;;;;5080860;28;20027;-44
2021/08/10 07:15:20;;;;;;;9.13;8.23;;;;;;;;;;5081691;28;20028;-44
2021/08/10 07:17:47;;;;;;;11.23;8.38;;;;;;;;;;5082164;28;20512;-43
2021/08/10 07:20:13;;;;;;;9.38;7.82;;;;;;;;;;5062720;28;20033;-44
2021/08/10 07:22:39;;;;;;;10.75;8.68;;;;;;;;;;5089265;28;20036;-43
2021/08/10 07:25:06;;;;;;;9.13;8.32;;;;;;;;;;5088154;28;20055;-42
2021/08/10 07:27:32;;;;;;;10.38;8.13;;;;;;;;;;5092586;28;20027;-43
2021/08/10 07:30:00;;;;;;;8.95;7.68;;;;;;;;;;5092753;28;20384;-43
2021/08/10 07:32:26;;;;;;;9.40;8.50;;;;;;;;;;5074619;28;20432;-43
2021/08/10 07:34:52;;;;;;;10.75;8.43;;;;;;;;;;5092563;28;20058;-42
2021/08/10 07:37:18;;;;;;;9.00;8.10;;;;;;;;;;5092365;28;20059;-42
2021/08/10 07:39:44;;;;;;;10.20;8.50;;;;;;;;;;5092544;28;20031;-42
2021/08/10 07:42:10;;;;;;;10.10;8.85;;;;;;;;;;5085623;28;20078;-44
2021/08/10 07:44:36;;;;;;;8.52;7.72;;;;;;;;;;5081254;28;20012;-43
2021/08/10 07:47:04;;;;;;;9.00;7.28;;;;;;;;;;5081184;28;20017;-43
2021/08/10 07:49:30;;;;;;;11.18;7.70;;;;;;;;;;5079974;28;20075;-45
2021/08/10 07:51:56;;;;;;;8.07;7.38;;;;;;;;;;5081118;28;20024;-43
2021/08/10 07:54:22;;;;;;;9.70;8.50;;;;;;;;;;5081050;28;20048;-43
2021/08/10 07:56:48;;;;;;;9.00;8.07;;;;;;;;;;5070910;28;20062;-44
2021/08/10 07:59:14;;;;;;;11.05;7.80;;;;;;;;;;5092000;28;20452;-44
2021/08/10 08:01:40;;;;;;;11.50;8.23;;;;;;;;;;5092107;28;20115;-43
2021/08/10 08:04:06;;;;;;;8.65;7.82;;;;;;;;;;5073103;28;20360;-44
2021/08/10 08:06:32;;;;;;;11.30;7.65;;;;;;;;;;5089784;28;20459;-43
2021/08/10 08:08:58;;;;;;;8.52;7.72;;;;;;;;;;5084225;28;20028;-43
2021/08/10 08:11:24;;;;;;;12.85;7.45;;;;;;;;;;5079423;28;20380;-43
2021/08/10 08:13:50;;;;;;;8.90;8.00;;;;;;;;;;5080337;28;20103;-44
2021/08/10 08:16:16;;;;;;;8.15;7.43;;;;;;;;;;5081111;28;20095;-43
2021/08/10 08:18:43;;;;;;;8.20;7.32;;;;;;;;;;5079060;28;20067;-43
2021/08/10 08:21:09;;;;;;;8.18;6.93;;;;;;;;;;5080906;28;20020;-43
2021/08/10 08:23:37;;;;;;;8.23;7.43;;;;;;;;;;5081162;28;20024;-42
2021/08/10 08:26:05;;;;;;;8.50;7.65;;;;;;;;;;5079195;28;20518;-43
2021/08/10 08:28:31;;;;;;;8.52;7.32;;;;;;;;;;5080216;28;20099;-44
2021/08/10 08:30:57;;;;;;;7.90;7.20;;;;;;;;;;5081134;28;20017;-44
2021/08/10 08:33:23;;;;;;;8.10;7.30;;;;;;;;;;5061176;28;20174;-45
2021/08/10 08:35:50;;;;;;;9.07;7.93;;;;;;;;;;5080579;28;20580;-42
2021/08/10 08:38:16;;;;;;;10.43;7.60;;;;;;;;;;5080805;28;20395;-43
2021/08/10 08:40:44;;;;;;;8.25;7.45;;;;;;;;;;5076147;28;20162;-43
2021/08/10 08:43:11;;;;;;;7.40;6.80;;;;;;;;;;5077939;28;20089;-43
2021/08/10 08:45:37;;;;;;;8.15;7.47;;;;;;;;;;5090769;28;20466;-43
2021/08/10 08:48:04;;;;;;;8.95;7.75;;;;;;;;;;5090223;28;20032;-43
2021/08/10 08:50:32;;;;;;;8.38;7.60;;;;;;;;;;5090961;28;20020;-44
2021/08/10 08:52:58;;;;;;;9.13;7.00;;;;;;;;;;5071931;28;20151;-43
2021/08/10 08:55:25;;;;;;;7.80;7.00;;;;;;;;;;5091023;28;20055;-43
2021/08/10 08:57:51;;;;;;;7.65;6.95;;;;;;;;;;5091184;28;20031;-43
2021/08/10 09:00:18;;;;;;;7.97;7.00;;;;;;;;;;5090978;28;20441;-43
2021/08/10 09:02:44;;;;;;;8.07;7.28;;;;;;;;;;5091563;28;20028;-44
2021/08/10 09:05:11;;;;;;;7.88;6.80;;;;;;;;;;5091169;28;20032;-43
2021/08/10 09:07:37;;;;;;;7.45;6.75;;;;;;;;;;5091196;28;20047;-44
2021/08/10 09:10:12;;;;;;;7.80;6.45;;;;;;;;;;5091180;28;20026;-44
2021/08/10 09:12:48;;;;;;;7.55;6.82;;;;;;;;;;5091632;28;20032;-44
2021/08/10 09:15:33;;;;;;;9.80;6.93;;;;;;;;;;5091071;28;20055;-43
2021/08/10 09:18:13;;;;;;;8.18;5.95;;;;;;;;;;5091038;28;20075;-43
2021/08/10 09:20:39;;;;;;;8.45;7.18;;;;;;;;;;5091147;28;20085;-43
2021/08/10 09:23:05;;;;;;;8.45;7.25;;;;;;;;;;5091291;28;20032;-44
2021/08/10 09:25:33;;;;;;;9.48;6.57;;;;;;;;;;5091220;28;20032;-44
2021/08/10 09:28:07;;;;;;;8.32;6.18;;;;;;;;;;5091399;28;20016;-42
2021/08/10 09:30:34;;;;;;;6.90;6.30;;;;;;;;;;5090912;28;20518;-43
2021/08/10 09:33:07;;;;;;;9.80;6.65;;;;;;;;;;5091165;28;20047;-43
2021/08/10 09:35:35;;;;;;;10.05;6.53;;;;;;;;;;5091084;28;20070;-44
2021/08/10 09:38:09;;;;;;;8.82;6.80;;;;;;;;;;5090795;28;20021;-42
2021/08/10 09:40:42;;;;;;;7.28;6.57;;;;;;;;;;5091199;28;20140;-44
2021/08/10 09:43:21;;;;;;;6.93;6.30;;;;;;;;;;5091008;28;20034;-44
2021/08/10 09:45:48;;;;;;;6.93;6.30;;;;;;;;;;5090784;28;20356;-43
2021/08/10 09:48:17;;;;;;;7.40;6.47;;;;;;;;;;5090755;28;20085;-43
2021/08/10 09:50:44;;;;;;;7.00;6.32;;;;;;;;;;5094537;28;20027;-43
2021/08/10 09:53:21;;;;;;;6.90;6.20;;;;;;;;;;5094841;28;20388;-44
2021/08/10 09:55:56;;;;;;;6.78;5.68;;;;;;;;;;5094453;28;20047;-44
2021/08/10 09:58:23;;;;;;;8.45;5.90;;;;;;;;;;5094343;28;20035;-42
2021/08/10 10:00:53;;;;;;;6.28;5.45;;;;;;;;;;5094195;28;20154;-43
2021/08/10 10:03:24;;;;;;;6.78;5.60;;;;;;;;;;5094466;28;20035;-43
2021/08/10 10:05:51;;;;;;;7.65;6.03;;;;;;;;;;5094055;28;20028;-44
2021/08/10 10:08:18;;;;;;;9.63;6.20;;;;;;;;;;5093958;28;20552;-44
2021/08/10 10:10:44;;;;;;;8.88;6.13;;;;;;;;;;5094072;28;20359;-43
2021/08/10 10:13:12;;;;;;;8.80;5.55;;;;;;;;;;5093756;28;20016;-42
2021/08/10 10:15:39;;;;;;;7.82;5.20;;;;;;;;;;5094059;28;20028;-43
2021/08/10 10:18:06;;;;;;;6.03;5.53;;;;;;;;;;5093696;28;20055;-42
2021/08/10 10:20:32;;;;;;;6.32;5.68;;;;;;;;;;5075664;28;20020;-43
2021/08/10 10:22:59;;;;;;;6.65;5.75;;;;;;;;;;5093794;28;20035;-43
2021/08/10 10:25:26;;;;;;;9.05;5.95;;;;;;;;;;5093572;28;20051;-44
2021/08/10 10:27:55;;;;;;;7.00;5.88;;;;;;;;;;5093645;28;20020;-43
2021/08/10 10:30:21;;;;;;;5.55;5.05;;;;;;;;;;5093682;28;20103;-45
2021/08/10 10:32:47;;;;;;;5.68;5.03;;;;;;;;;;5093725;28;20031;-42
2021/08/10 10:35:13;;;;;;;6.32;5.78;;;;;;;;;;5093581;28;20391;-43
2021/08/10 10:37:40;;;;;;;5.78;5.28;;;;;;;;;;5075256;28;20480;-43
2021/08/10 10:40:08;;;;;;;9.25;6.15;;;;;;;;;;5093447;28;20020;-42
2021/08/10 10:42:35;;;;;;;5.93;5.18;;;;;;;;;;5093327;28;20039;-43
2021/08/10 10:45:01;;;;;;;10.70;5.88;;;;;;;;;;5093335;28;20028;-44
2021/08/10 10:47:39;;;;;;;7.22;5.88;;;;;;;;;;5093351;28;20024;-43
2021/08/10 10:50:06;;;;;;;6.95;5.70;;;;;;;;;;5093365;28;20024;-43
2021/08/10 10:52:33;;;;;;;11.65;5.93;;;;;;;;;;5093220;28;20020;-43
2021/08/10 10:54:59;;;;;;;5.85;5.35;;;;;;;;;;5093273;28;20028;-44
2021/08/10 10:59:57;;;;;;;5.85;5.35;;;;;;;;;;5093045;28;20055;-44
2021/08/10 11:02:25;;;;;;;6.28;5.45;;;;;;;;;;5093006;28;20046;-45
2021/08/10 11:05:14;;;;;;;7.65;5.78;;;;;;;;;;5092966;28;20032;-43
2021/08/10 11:07:43;;;;;;;6.82;5.55;;;;;;;;;;5083425;28;20043;-43
2021/08/10 11:10:29;;;;;;;5.22;4.72;;;;;;;;;;5074756;28;20111;-44
2021/08/10 11:12:55;;;;;;;9.93;5.45;;;;;;;;;;5064318;28;20399;-43
2021/08/10 11:15:22;;;;;;;6.85;5.05;;;;;;;;;;5092632;28;20024;-42
2021/08/10 11:18:06;;;;;;;9.02;5.30;;;;;;;;;;5092654;28;20048;-43
2021/08/10 11:20:32;;;;;;;5.55;5.05;;;;;;;;;;5092722;28;20031;-43
2021/08/10 11:23:26;;;;;;;5.70;5.20;;;;;;;;;;5092597;28;20024;-43
2021/08/10 11:25:53;;;;;;;14.13;5.40;;;;;;;;;;5092541;28;20107;-43
2021/08/10 11:28:27;;;;;;;6.25;4.90;;;;;;;;;;5092488;28;20115;-44
2021/08/10 11:30:53;;;;;;;5.45;4.82;;;;;;;;;;5092832;28;20043;-44
2021/08/10 11:33:36;;;;;;;5.35;4.85;;;;;;;;;;5092351;28;20463;-44
2021/08/10 11:36:11;;;;;;;8.10;5.47;;;;;;;;;;5092500;28;20028;-44
2021/08/10 11:38:57;;;;;;;6.35;5.07;;;;;;;;;;5092169;28;20020;-43
2021/08/10 11:41:30;;;;;;;4.70;4.25;;;;;;;;;;5092302;28;20032;-44
2021/08/10 11:43:58;;;;;;;5.77;5.10;;;;;;;;;;5092218;28;20028;-43
2021/08/10 11:46:24;;;;;;;6.68;5.10;;;;;;;;;;5073876;28;20024;-42
2021/08/10 11:48:51;;;;;;;7.75;4.95;;;;;;;;;;5074146;28;20383;-43
2021/08/10 11:51:18;;;;;;;7.05;4.75;;;;;;;;;;5092110;28;20059;-44
2021/08/10 11:53:44;;;;;;;5.97;5.28;;;;;;;;;;5091931;28;20026;-43
2021/08/10 11:56:22;;;;;;;5.97;4.78;;;;;;;;;;5092144;28;20055;-42
2021/08/10 11:58:48;;;;;;;7.63;5.15;;;;;;;;;;5092214;28;20031;-42
2021/08/10 12:01:15;;;;;;;5.50;5.00;;;;;;;;;;5091918;28;20039;-43
2021/08/10 12:03:41;;;;;;;5.68;4.88;;;;;;;;;;5091917;28;20028;-44
2021/08/10 12:06:07;;;;;;;9.07;5.50;;;;;;;;;;5091786;28;20077;-42
2021/08/10 12:08:33;;;;;;;5.60;5.05;;;;;;;;;;5091987;28;20097;-44
2021/08/10 12:10:59;;;;;;;6.88;5.00;;;;;;;;;;5073385;28;20462;-43
2021/08/10 12:13:26;;;;;;;6.35;5.18;;;;;;;;;;5091343;28;20482;-43
2021/08/10 12:15:54;;;;;;;7.40;5.40;;;;;;;;;;5091830;28;20099;-42
2021/08/10 12:18:22;;;;;;;5.70;4.68;;;;;;;;;;5091448;28;20068;-44
2021/08/10 12:21:01;;;;;;;5.38;4.20;;;;;;;;;;5091557;28;20080;-42
2021/08/10 12:23:28;;;;;;;7.82;4.50;;;;;;;;;;5091520;28;20031;-44
2021/08/10 12:25:55;;;;;;;5.10;4.43;;;;;;;;;;5091514;28;20029;-44
2021/08/10 12:28:21;;;;;;;4.57;4.15;;;;;;;;;;5073422;28;20019;-42
2021/08/10 12:30:47;;;;;;;5.18;4.30;;;;;;;;;;5091307;28;20394;-43
2021/08/10 12:33:14;;;;;;;4.88;4.15;;;;;;;;;;5091303;28;20020;-42
2021/08/10 12:35:55;;;;;;;5.40;4.88;;;;;;;;;;5091544;28;20035;-44
2021/08/10 12:38:22;;;;;;;4.70;4.30;;;;;;;;;;5091434;28;20020;-44
2021/08/10 12:40:48;;;;;;;5.05;4.40;;;;;;;;;;5091691;28;20020;-44
2021/08/10 12:43:14;;;;;;;5.35;4.38;;;;;;;;;;5091324;28;20478;-44
2021/08/10 12:45:40;;;;;;;5.93;4.38;;;;;;;;;;5091291;28;20081;-43
2021/08/10 12:48:26;;;;;;;4.60;4.20;;;;;;;;;;5091402;28;20016;-43
2021/08/10 12:50:59;;;;;;;4.10;3.80;;;;;;;;;;5091301;28;20027;-43
2021/08/10 12:53:25;;;;;;;;;;;;;;;;;;5092141;28;20182;-44
2021/08/10 12:55:51;;;;;;;4.18;3.88;;;;;;;;;;5091235;28;19990;-44
2021/08/10 12:58:18;;;;;;;4.10;3.35;;;;;;;;;;5091489;28;20024;-44
2021/08/10 13:00:56;;;;;;;6.50;3.67;;;;;;;;;;5091326;28;20127;-43
2021/08/10 13:03:22;;;;;;;3.42;3.13;;;;;;;;;;5091368;28;20028;-45
2021/08/10 13:05:48;;;;;;;3.70;3.40;;;;;;;;;;5091164;28;20030;-44
2021/08/10 13:08:14;;;;;;;3.70;3.40;;;;;;;;;;5072964;28;20359;-45
2021/08/10 13:10:41;;;;;;;4.03;3.50;;;;;;;;;;5091080;28;20046;-45
2021/08/10 13:13:09;;;;;;;6.25;3.78;;;;;;;;;;5091104;28;20020;-47
2021/08/10 13:15:42;;;;;;;3.40;3.20;;;;;;;;;;5091234;28;20056;-44
2021/08/10 13:18:22;;;;;;;3.97;3.17;;;;;;;;;;5091037;28;20445;-43
2021/08/10 13:21:01;;;;;;;4.18;3.45;;;;;;;;;;5091145;28;20047;-44
2021/08/10 13:23:36;;;;;;;3.38;3.08;;;;;;;;;;5092988;28;20055;-44
2021/08/10 13:26:07;;;;;;;4.50;3.33;;;;;;;;;;5076720;28;20028;-44
2021/08/10 13:28:33;;;;;;;5.20;3.20;;;;;;;;;;5094837;28;20035;-44
2021/08/10 13:31:16;;;;;;;3.40;3.20;;;;;;;;;;5094847;28;20017;-43
2021/08/10 13:33:56;;;;;;;3.35;3.05;;;;;;;;;;5095123;28;20056;-44
2021/08/10 13:36:23;;;;;;;5.95;3.80;;;;;;;;;;5094621;28;20032;-44
2021/08/10 13:38:49;;;;;;;3.78;3.47;;;;;;;;;;5094618;28;20126;-44
2021/08/10 13:41:15;;;;;;;4.32;3.05;;;;;;;;;;5094606;28;20437;-47
2021/08/10 13:43:41;;;;;;;4.22;3.15;;;;;;;;;;5094607;28;20020;-44
2021/08/10 13:46:07;;;;;;;6.35;3.60;;;;;;;;;;5094454;28;20024;-45
2021/08/10 13:48:33;;;;;;;3.83;3.10;;;;;;;;;;5094589;28;20479;-45
2021/08/10 13:50:59;;;;;;;5.63;3.47;;;;;;;;;;5076234;28;20491;-44
2021/08/10 13:53:27;;;;;;;3.20;2.90;;;;;;;;;;5094434;28;20028;-43
2021/08/10 13:55:53;;;;;;;4.25;3.33;;;;;;;;;;5094384;28;20028;-44
2021/08/10 13:58:19;;;;;;;3.75;3.13;;;;;;;;;;5094242;28;20107;-43
2021/08/10 14:00:45;;;;;;;3.47;3.17;;;;;;;;;;5094185;28;20032;-45
2021/08/10 14:03:12;;;;;;;3.60;3.25;;;;;;;;;;5094322;28;20052;-43
2021/08/10 14:05:38;;;;;;;7.00;3.60;;;;;;;;;;5094408;28;20023;-44
2021/08/10 14:08:04;;;;;;;3.45;3.15;;;;;;;;;;5094032;28;20016;-45
2021/08/10 14:10:30;;;;;;;3.88;3.47;;;;;;;;;;5094181;28;20364;-44
2021/08/10 14:12:56;;;;;;;6.55;3.40;;;;;;;;;;5093906;28;20091;-44
2021/08/10 14:15:22;;;;;;;3.75;3.17;;;;;;;;;;5093867;28;20032;-44
2021/08/10 14:17:48;;;;;;;5.35;3.25;;;;;;;;;;5075697;28;20048;-43
2021/08/10 14:20:14;;;;;;;5.13;2.67;;;;;;;;;;5094146;28;20376;-44
2021/08/10 14:22:41;;;;;;;3.65;3.25;;;;;;;;;;5094205;28;20798;-44
2021/08/10 14:25:07;;;;;;;5.03;3.33;;;;;;;;;;5093879;28;20092;-46
2021/08/10 14:27:33;;;;;;;3.17;2.97;;;;;;;;;;5075657;28;20023;-44
2021/08/10 14:30:02;;;;;;;3.60;3.30;;;;;;;;;;5093914;28;20031;-44
2021/08/10 14:32:28;;;;;;;6.65;3.58;;;;;;;;;;5093789;28;20442;-44
2021/08/10 14:34:54;;;;;;;3.22;3.03;;;;;;;;;;5093026;28;20028;-43
2021/08/10 14:37:20;;;;;;;3.47;2.80;;;;;;;;;;5093926;28;20023;-44
2021/08/10 14:39:46;;;;;;;3.42;2.90;;;;;;;;;;5093485;28;20034;-45
2021/08/10 14:42:12;;;;;;;3.20;2.90;;;;;;;;;;5093268;28;20429;-45
2021/08/10 14:44:38;;;;;;;3.85;2.60;;;;;;;;;;5093340;28;20063;-44